Terminal Aerodrome Forecast
Issued by NWS Des Moines, IA

Home | Current Version | Previous Version | Text Only | Print | Product List | Glossary On
Versions: 1 2 3 4 5 6 7 8 9 10 11 12 13 14 15 16 17 18 19 20 21 22 23 24 25 26 27 28 29 30 31 32 33 34 35 36 37 38 39 40 41 42 43 44
000
FTUS43 KDMX 222333
TAFDSM
TAF
KDSM 222333Z 2300/2324 34012G22KT 6SM SHRA BR VCTS OVC010CB
      TEMPO 2300/2303 1SM TSRA BR OVC003CB
     FM230600 34013KT P6SM VCTS OVC003CB
     FM230900 34014G23KT P6SM OVC008
     FM232100 34014KT P6SM BKN040=

USA.gov is the U.S. government's official web portal to all federal, state and local government web resources and services.